sensor_id;sensor_type;location;lat;lon;timestamp;pressure;altitude;pressure_sealevel;temperature;humidity
70127;BME280;57491;42.694;23.314;2023-04-12T00:00:58;94242.16;;;10.36;59.71
70127;BME280;57491;42.694;23.314;2023-04-12T00:03:26;94242.16;;;10.36;60.07
70127;BME280;57491;42.694;23.314;2023-04-12T00:05:53;94245.13;;;10.33;60.28
70127;BME280;57491;42.694;23.314;2023-04-12T00:08:20;94237.53;;;10.38;60.28
70127;BME280;57491;42.694;23.314;2023-04-12T00:10:50;94239.56;;;10.36;60.46
70127;BME280;57491;42.694;23.314;2023-04-12T00:13:19;94245.34;;;10.38;60.11
70127;BME280;57491;42.694;23.314;2023-04-12T00:15:46;94241.75;;;10.39;59.98
70127;BME280;57491;42.694;23.314;2023-04-12T00:18:13;94236.56;;;10.39;59.91
70127;BME280;57491;42.694;23.314;2023-04-12T00:20:40;94234.13;;;10.37;59.92
70127;BME280;57491;42.694;23.314;2023-04-12T00:23:07;94227.34;;;10.43;59.94
70127;BME280;57491;42.694;23.314;2023-04-12T00:25:37;94225.75;;;10.42;60.35
70127;BME280;57491;42.694;23.314;2023-04-12T00:28:05;94227.34;;;10.36;60.29
70127;BME280;57491;42.694;23.314;2023-04-12T00:30:33;94221.56;;;10.34;60.30
70127;BME280;57491;42.694;23.314;2023-04-12T00:33:00;94226.13;;;10.32;60.21
70127;BME280;57491;42.694;23.314;2023-04-12T00:35:27;94221.13;;;10.24;60.86
70127;BME280;57491;42.694;23.314;2023-04-12T00:37:54;94222.94;;;10.30;60.36
70127;BME280;57491;42.694;23.314;2023-04-12T00:40:21;94214.34;;;10.29;60.39
70127;BME280;57491;42.694;23.314;2023-04-12T00:42:48;94223.34;;;10.40;59.39
70127;BME280;57491;42.694;23.314;2023-04-12T00:45:15;94222.16;;;10.49;59.90
70127;BME280;57491;42.694;23.314;2023-04-12T00:47:44;94220.56;;;10.55;59.70
70127;BME280;57491;42.694;23.314;2023-04-12T00:50:11;94217.38;;;10.46;59.68
70127;BME280;57491;42.694;23.314;2023-04-12T00:52:38;94209.38;;;10.48;60.25
70127;BME280;57491;42.694;23.314;2023-04-12T00:55:07;94217.75;;;10.50;59.77
70127;BME280;57491;42.694;23.314;2023-04-12T00:57:35;94216.38;;;10.47;60.00
70127;BME280;57491;42.694;23.314;2023-04-12T01:00:03;94217.75;;;10.50;59.52
70127;BME280;57491;42.694;23.314;2023-04-12T01:02:31;94212.56;;;10.50;59.78
70127;BME280;57491;42.694;23.314;2023-04-12T01:05:01;94212.97;;;10.47;59.66
70127;BME280;57491;42.694;23.314;2023-04-12T01:07:37;94205.78;;;10.49;59.93
70127;BME280;57491;42.694;23.314;2023-04-12T01:10:15;94216.38;;;10.47;59.32
70127;BME280;57491;42.694;23.314;2023-04-12T01:12:50;94201.78;;;10.46;59.29
70127;BME280;57491;42.694;23.314;2023-04-12T01:15:20;94199.56;;;10.43;59.67
70127;BME280;57491;42.694;23.314;2023-04-12T01:17:54;94205.97;;;10.47;59.38
70127;BME280;57491;42.694;23.314;2023-04-12T01:20:27;94197.16;;;10.42;59.59
70127;BME280;57491;42.694;23.314;2023-04-12T01:23:30;94205.38;;;10.52;63.26
70127;BME280;57491;42.694;23.314;2023-04-12T01:26:11;94202.00;;;10.58;59.75
70127;BME280;57491;42.694;23.314;2023-04-12T01:28:44;94194.78;;;10.53;60.15
70127;BME280;57491;42.694;23.314;2023-04-12T01:31:13;94193.38;;;10.51;59.20
70127;BME280;57491;42.694;23.314;2023-04-12T01:33:42;94192.38;;;10.52;60.00
70127;BME280;57491;42.694;23.314;2023-04-12T01:36:14;94192.78;;;10.49;59.76
70127;BME280;57491;42.694;23.314;2023-04-12T01:38:43;94195.97;;;10.51;59.42
70127;BME280;57491;42.694;23.314;2023-04-12T01:41:11;94187.78;;;10.34;59.87
70127;BME280;57491;42.694;23.314;2023-04-12T01:43:43;94197.16;;;10.28;60.57
70127;BME280;57491;42.694;23.314;2023-04-12T01:46:12;94203.16;;;10.29;60.62
70127;BME280;57491;42.694;23.314;2023-04-12T01:48:46;94191.38;;;10.26;60.38
70127;BME280;57491;42.694;23.314;2023-04-12T01:51:19;94202.97;;;10.31;60.74
70127;BME280;57491;42.694;23.314;2023-04-12T01:53:56;94193.97;;;10.26;60.31
70127;BME280;57491;42.694;23.314;2023-04-12T01:56:29;94198.91;;;10.15;61.07
70127;BME280;57491;42.694;23.314;2023-04-12T01:58:58;94190.56;;;10.19;61.35
70127;BME280;57491;42.694;23.314;2023-04-12T02:01:26;94185.69;;;10.10;61.41
70127;BME280;57491;42.694;23.314;2023-04-12T02:03:56;94195.69;;;10.06;61.53
70127;BME280;57491;42.694;23.314;2023-04-12T02:06:25;94194.09;;;10.05;62.02
70127;BME280;57491;42.694;23.314;2023-04-12T02:08:57;94190.69;;;9.98;61.76
70127;BME280;57491;42.694;23.314;2023-04-12T02:11:25;94200.47;;;9.96;61.91
70127;BME280;57491;42.694;23.314;2023-04-12T02:13:52;94193.66;;;9.95;61.47
70127;BME280;57491;42.694;23.314;2023-04-12T02:16:20;94194.88;;;9.93;61.53
70127;BME280;57491;42.694;23.314;2023-04-12T02:18:48;94196.06;;;9.90;61.27
70127;BME280;57491;42.694;23.314;2023-04-12T02:21:16;94187.06;;;9.86;61.72
70127;BME280;57491;42.694;23.314;2023-04-12T02:23:43;94191.28;;;9.94;61.53
70127;BME280;57491;42.694;23.314;2023-04-12T02:26:10;94193.88;;;9.94;61.59
70127;BME280;57491;42.694;23.314;2023-04-12T02:28:37;94196.66;;;9.92;60.97
70127;BME280;57491;42.694;23.314;2023-04-12T02:31:05;94200.25;;;9.91;61.33
70127;BME280;57491;42.694;23.314;2023-04-12T02:33:34;94196.06;;;9.90;61.45
70127;BME280;57491;42.694;23.314;2023-04-12T02:36:01;94199.25;;;9.92;61.48
70127;BME280;57491;42.694;23.314;2023-04-12T02:38:28;94195.03;;;9.91;61.03
70127;BME280;57491;42.694;23.314;2023-04-12T02:40:55;94178.09;;;9.89;62.14
70127;BME280;57491;42.694;23.314;2023-04-12T02:43:23;94189.88;;;10.04;62.03
70127;BME280;57491;42.694;23.314;2023-04-12T02:45:50;94172.88;;;9.95;61.84
70127;BME280;57491;42.694;23.314;2023-04-12T02:48:17;94178.69;;;9.97;61.25
70127;BME280;57491;42.694;23.314;2023-04-12T02:50:45;94174.09;;;9.93;61.15
70127;BME280;57491;42.694;23.314;2023-04-12T02:53:12;94174.72;;;9.95;61.55
70127;BME280;57491;42.694;23.314;2023-04-12T02:55:39;94177.50;;;9.93;61.46
70127;BME280;57491;42.694;23.314;2023-04-12T02:58:06;94182.91;;;9.98;61.63
70127;BME280;57491;42.694;23.314;2023-04-12T03:00:33;94182.91;;;10.05;61.39
70127;BME280;57491;42.694;23.314;2023-04-12T03:03:01;94181.72;;;10.14;60.79
70127;BME280;57491;42.694;23.314;2023-04-12T03:05:33;94181.56;;;10.15;61.20
70127;BME280;57491;42.694;23.314;2023-04-12T03:08:02;94177.78;;;10.24;61.19
70127;BME280;57491;42.694;23.314;2023-04-12T03:10:29;94176.38;;;10.28;61.15
70127;BME280;57491;42.694;23.314;2023-04-12T03:12:56;94175.00;;;10.26;61.26
70127;BME280;57491;42.694;23.314;2023-04-12T03:15:23;94183.19;;;10.29;61.47
70127;BME280;57491;42.694;23.314;2023-04-12T03:17:52;94186.78;;;10.42;61.87
70127;BME280;57491;42.694;23.314;2023-04-12T03:20:21;94191.19;;;10.48;61.50
70127;BME280;57491;42.694;23.314;2023-04-12T03:22:49;94185.00;;;10.62;63.68
70127;BME280;57491;42.694;23.314;2023-04-12T03:25:17;94178.97;;;10.81;63.45
70127;BME280;57491;42.694;23.314;2023-04-12T03:27:45;94177.38;;;10.80;61.20
70127;BME280;57491;42.694;23.314;2023-04-12T03:30:12;94181.56;;;10.68;61.31
70127;BME280;57491;42.694;23.314;2023-04-12T03:32:40;94186.38;;;10.71;62.02
70127;BME280;57491;42.694;23.314;2023-04-12T03:35:08;94183.19;;;10.76;61.74
70127;BME280;57491;42.694;23.314;2023-04-12T03:37:35;94192.56;;;10.63;62.71
70127;BME280;57491;42.694;23.314;2023-04-12T03:40:03;94190.97;;;10.49;62.37
70127;BME280;57491;42.694;23.314;2023-04-12T03:42:33;94186.56;;;10.50;62.57
70127;BME280;57491;42.694;23.314;2023-04-12T03:45:00;94200.38;;;10.50;62.63
70127;BME280;57491;42.694;23.314;2023-04-12T03:47:27;94199.78;;;10.48;62.48
70127;BME280;57491;42.694;23.314;2023-04-12T03:49:54;94195.97;;;10.51;62.15
70127;BME280;57491;42.694;23.314;2023-04-12T03:52:22;94187.38;;;10.31;62.25
70127;BME280;57491;42.694;23.314;2023-04-12T03:54:49;94198.56;;;10.38;62.33
70127;BME280;57491;42.694;23.314;2023-04-12T03:57:16;94213.75;;;10.27;62.00
70127;BME280;57491;42.694;23.314;2023-04-12T03:59:44;94187.34;;;10.24;62.34
70127;BME280;57491;42.694;23.314;2023-04-12T04:02:11;94200.97;;;10.33;62.10
70127;BME280;57491;42.694;23.314;2023-04-12T04:04:38;94201.78;;;10.40;62.87
70127;BME280;57491;42.694;23.314;2023-04-12T04:07:05;94171.59;;;10.25;62.21
70127;BME280;57491;42.694;23.314;2023-04-12T04:09:33;94193.38;;;10.38;61.95
70127;BME280;57491;42.694;23.314;2023-04-12T04:12:00;94204.78;;;10.43;62.13
70127;BME280;57491;42.694;23.314;2023-04-12T04:14:27;94210.19;;;10.48;62.15
70127;BME280;57491;42.694;23.314;2023-04-12T04:16:56;94222.16;;;10.43;62.34
70127;BME280;57491;42.694;23.314;2023-04-12T04:19:23;94224.75;;;10.43;61.89
70127;BME280;57491;42.694;23.314;2023-04-12T04:21:50;94221.53;;;10.41;62.48
70127;BME280;57491;42.694;23.314;2023-04-12T04:24:17;94236.16;;;10.48;62.00
70127;BME280;57491;42.694;23.314;2023-04-12T04:26:47;94246.56;;;10.55;61.63
70127;BME280;57491;42.694;23.314;2023-04-12T04:29:14;94238.97;;;10.60;61.83
70127;BME280;57491;42.694;23.314;2023-04-12T04:31:42;94245.75;;;10.54;61.25
70127;BME280;57491;42.694;23.314;2023-04-12T04:34:12;94245.75;;;10.48;61.36
70127;BME280;57491;42.694;23.314;2023-04-12T04:36:39;94221.75;;;10.26;61.55
70127;BME280;57491;42.694;23.314;2023-04-12T04:39:07;94255.72;;;10.38;61.57
70127;BME280;57491;42.694;23.314;2023-04-12T04:41:34;94256.75;;;10.43;63.15
70127;BME280;57491;42.694;23.314;2023-04-12T04:44:04;94246.94;;;10.39;61.33
70127;BME280;57491;42.694;23.314;2023-04-12T04:46:34;94246.13;;;10.38;61.34
70127;BME280;57491;42.694;23.314;2023-04-12T04:49:02;94256.16;;;10.48;62.21
70127;BME280;57491;42.694;23.314;2023-04-12T04:51:31;94246.94;;;10.39;61.13
70127;BME280;57491;42.694;23.314;2023-04-12T04:53:59;94264.94;;;10.47;61.19
70127;BME280;57491;42.694;23.314;2023-04-12T04:56:26;94246.53;;;10.35;60.75
70127;BME280;57491;42.694;23.314;2023-04-12T04:58:54;94266.94;;;10.45;60.90
70127;BME280;57491;42.694;23.314;2023-04-12T05:01:21;94253.75;;;10.40;61.40
70127;BME280;57491;42.694;23.314;2023-04-12T05:03:50;94267.75;;;10.52;60.40
70127;BME280;57491;42.694;23.314;2023-04-12T05:06:17;94268.75;;;10.57;59.28
70127;BME280;57491;42.694;23.314;2023-04-12T05:08:45;94270.56;;;10.63;61.78
70127;BME280;57491;42.694;23.314;2023-04-12T05:11:12;94279.38;;;10.76;59.56
70127;BME280;57491;42.694;23.314;2023-04-12T05:13:39;94279.19;;;10.70;58.66
70127;BME280;57491;42.694;23.314;2023-04-12T05:16:07;94273.78;;;10.79;60.99
70127;BME280;57491;42.694;23.314;2023-04-12T05:18:34;94282.19;;;10.81;58.11
70127;BME280;57491;42.694;23.314;2023-04-12T05:21:01;94280.97;;;10.70;58.76
70127;BME280;57491;42.694;23.314;2023-04-12T05:23:33;94273.16;;;10.70;57.53
70127;BME280;57491;42.694;23.314;2023-04-12T05:26:02;94277.53;;;10.63;57.09
70127;BME280;57491;42.694;23.314;2023-04-12T05:28:29;94276.97;;;10.74;57.47
70127;BME280;57491;42.694;23.314;2023-04-12T05:30:56;94269.78;;;10.89;56.57
70127;BME280;57491;42.694;23.314;2023-04-12T05:33:23;94280.97;;;10.96;55.95
70127;BME280;57491;42.694;23.314;2023-04-12T05:35:50;94270.38;;;10.85;55.97
70127;BME280;57491;42.694;23.314;2023-04-12T05:38:17;94275.38;;;10.86;55.81
70127;BME280;57491;42.694;23.314;2023-04-12T05:40:44;94290.19;;;11.05;55.98
70127;BME280;57491;42.694;23.314;2023-04-12T05:43:12;94283.00;;;11.07;56.07
70127;BME280;57491;42.694;23.314;2023-04-12T05:45:39;94278.56;;;11.14;55.24
70127;BME280;57491;42.694;23.314;2023-04-12T05:48:06;94279.78;;;11.18;54.22
70127;BME280;57491;42.694;23.314;2023-04-12T05:50:34;94286.16;;;11.23;53.81
70127;BME280;57491;42.694;23.314;2023-04-12T05:53:01;94292.19;;;11.16;52.99
70127;BME280;57491;42.694;23.314;2023-04-12T05:55:28;94284.56;;;11.15;53.43
70127;BME280;57491;42.694;23.314;2023-04-12T05:57:55;94277.59;;;11.02;54.74
70127;BME280;57491;42.694;23.314;2023-04-12T06:00:24;94299.78;;;11.05;52.79
70127;BME280;57491;42.694;23.314;2023-04-12T06:02:52;94292.16;;;11.03;53.58
70127;BME280;57491;42.694;23.314;2023-04-12T06:05:19;94299.78;;;10.92;52.93
70127;BME280;57491;42.694;23.314;2023-04-12T06:07:47;94303.97;;;10.86;53.69
70127;BME280;57491;42.694;23.314;2023-04-12T06:10:15;94297.97;;;10.79;53.49
70127;BME280;57491;42.694;23.314;2023-04-12T06:12:42;94313.78;;;10.91;54.19
70127;BME280;57491;42.694;23.314;2023-04-12T06:15:10;94316.41;;;10.97;53.47
70127;BME280;57491;42.694;23.314;2023-04-12T06:17:38;94314.38;;;10.99;53.55
70127;BME280;57491;42.694;23.314;2023-04-12T06:20:06;94311.19;;;10.91;54.33
70127;BME280;57491;42.694;23.314;2023-04-12T06:22:34;94324.56;;;10.81;54.14
70127;BME280;57491;42.694;23.314;2023-04-12T06:25:01;94323.75;;;10.61;54.04
70127;BME280;57491;42.694;23.314;2023-04-12T06:27:29;94318.94;;;10.51;54.65
70127;BME280;57491;42.694;23.314;2023-04-12T06:29:56;94316.50;;;10.50;55.21
70127;BME280;57491;42.694;23.314;2023-04-12T06:32:23;94296.56;;;10.57;56.67
70127;BME280;57491;42.694;23.314;2023-04-12T06:34:52;94307.38;;;10.73;53.50
70127;BME280;57491;42.694;23.314;2023-04-12T06:37:20;94310.56;;;10.82;53.14
70127;BME280;57491;42.694;23.314;2023-04-12T06:39:47;94311.97;;;10.91;53.32
70127;BME280;57491;42.694;23.314;2023-04-12T06:42:14;94309.00;;;11.07;54.69
70127;BME280;57491;42.694;23.314;2023-04-12T06:44:41;94319.78;;;11.17;52.33
70127;BME280;57491;42.694;23.314;2023-04-12T06:47:08;94310.56;;;11.48;53.82
70127;BME280;57491;42.694;23.314;2023-04-12T06:49:35;94318.16;;;11.56;51.13
70127;BME280;57491;42.694;23.314;2023-04-12T06:52:03;94315.34;;;11.64;51.55
70127;BME280;57491;42.694;23.314;2023-04-12T06:54:30;94291.94;;;11.51;51.55
70127;BME280;57491;42.694;23.314;2023-04-12T06:56:57;94290.34;;;11.37;51.61
70127;BME280;57491;42.694;23.314;2023-04-12T06:59:27;94293.72;;;11.44;51.43
70127;BME280;57491;42.694;23.314;2023-04-12T07:01:54;94290.91;;;11.58;52.22
70127;BME280;57491;42.694;23.314;2023-04-12T07:04:21;94282.25;;;11.71;51.49
70127;BME280;57491;42.694;23.314;2023-04-12T07:06:48;94294.66;;;11.95;49.94
70127;BME280;57491;42.694;23.314;2023-04-12T07:09:16;94291.28;;;12.33;49.56
70127;BME280;57491;42.694;23.314;2023-04-12T07:11:44;94296.00;;;12.49;48.49
70127;BME280;57491;42.694;23.314;2023-04-12T07:14:13;94291.03;;;13.04;49.55
70127;BME280;57491;42.694;23.314;2023-04-12T07:16:41;94287.78;;;13.33;46.29
70127;BME280;57491;42.694;23.314;2023-04-12T07:19:08;94285.47;;;13.25;46.65
70127;BME280;57491;42.694;23.314;2023-04-12T07:21:35;94300.63;;;13.10;46.84
70127;BME280;57491;42.694;23.314;2023-04-12T07:24:02;94283.38;;;13.09;47.17
70127;BME280;57491;42.694;23.314;2023-04-12T07:26:32;94282.47;;;13.21;46.28
70127;BME280;57491;42.694;23.314;2023-04-12T07:28:59;94283.47;;;12.95;47.44
70127;BME280;57491;42.694;23.314;2023-04-12T07:31:26;94279.56;;;12.80;47.13
70127;BME280;57491;42.694;23.314;2023-04-12T07:33:55;94269.94;;;12.80;47.20
70127;BME280;57491;42.694;23.314;2023-04-12T07:36:22;94274.78;;;12.77;47.25
70127;BME280;57491;42.694;23.314;2023-04-12T07:38:49;94282.22;;;12.73;46.44
70127;BME280;57491;42.694;23.314;2023-04-12T07:41:20;94277.22;;;12.72;47.39
70127;BME280;57491;42.694;23.314;2023-04-12T07:43:49;94278.16;;;13.09;47.10
70127;BME280;57491;42.694;23.314;2023-04-12T07:46:16;94273.72;;;13.34;45.85
70127;BME280;57491;42.694;23.314;2023-04-12T07:48:43;94267.66;;;13.40;47.56
70127;BME280;57491;42.694;23.314;2023-04-12T07:51:10;94258.75;;;14.02;45.77
70127;BME280;57491;42.694;23.314;2023-04-12T07:53:37;94261.91;;;14.41;42.18
70127;BME280;57491;42.694;23.314;2023-04-12T07:56:07;94250.41;;;14.42;41.39
70127;BME280;57491;42.694;23.314;2023-04-12T07:58:34;94254.28;;;14.21;41.26
70127;BME280;57491;42.694;23.314;2023-04-12T08:01:02;94250.38;;;14.12;40.59
70127;BME280;57491;42.694;23.314;2023-04-12T08:03:29;94258.22;;;14.12;40.25
70127;BME280;57491;42.694;23.314;2023-04-12T08:05:56;94241.47;;;13.65;40.93
70127;BME280;57491;42.694;23.314;2023-04-12T08:08:23;94236.41;;;13.52;41.66
70127;BME280;57491;42.694;23.314;2023-04-12T08:10:52;94214.69;;;13.51;44.06
70127;BME280;57491;42.694;23.314;2023-04-12T08:13:20;94240.66;;;13.82;41.90
70127;BME280;57491;42.694;23.314;2023-04-12T08:15:47;94247.66;;;13.52;40.67
70127;BME280;57491;42.694;23.314;2023-04-12T08:18:16;94245.00;;;13.34;40.14
70127;BME280;57491;42.694;23.314;2023-04-12T08:20:43;94237.31;;;13.21;40.74
70127;BME280;57491;42.694;23.314;2023-04-12T08:23:10;94235.53;;;13.58;40.91
70127;BME280;57491;42.694;23.314;2023-04-12T08:25:37;94241.66;;;14.18;37.24
70127;BME280;57491;42.694;23.314;2023-04-12T08:28:05;94244.38;;;14.83;36.27
70127;BME280;57491;42.694;23.314;2023-04-12T08:30:32;94224.06;;;15.19;35.21
70127;BME280;57491;42.694;23.314;2023-04-12T08:32:59;94232.22;;;15.00;34.53
70127;BME280;57491;42.694;23.314;2023-04-12T08:35:28;94235.19;;;14.92;35.36
70127;BME280;57491;42.694;23.314;2023-04-12T08:37:55;94220.28;;;15.27;34.85
70127;BME280;57491;42.694;23.314;2023-04-12T08:40:22;94232.84;;;15.48;33.95
70127;BME280;57491;42.694;23.314;2023-04-12T08:42:51;94247.84;;;15.88;32.87
70127;BME280;57491;42.694;23.314;2023-04-12T08:45:20;94229.97;;;15.85;33.02
70127;BME280;57491;42.694;23.314;2023-04-12T08:47:48;94234.09;;;16.09;31.27
70127;BME280;57491;42.694;23.314;2023-04-12T08:50:15;94240.91;;;16.22;31.47
70127;BME280;57491;42.694;23.314;2023-04-12T08:52:45;94234.47;;;16.69;31.35
70127;BME280;57491;42.694;23.314;2023-04-12T08:55:14;94231.84;;;16.86;31.92
70127;BME280;57491;42.694;23.314;2023-04-12T08:57:41;94238.38;;;17.17;31.74
70127;BME280;57491;42.694;23.314;2023-04-12T09:00:09;94237.97;;;17.08;31.45
70127;BME280;57491;42.694;23.314;2023-04-12T09:02:38;94224.84;;;17.08;31.51
70127;BME280;57491;42.694;23.314;2023-04-12T09:05:07;94232.84;;;16.68;30.35
70127;BME280;57491;42.694;23.314;2023-04-12T09:07:35;94222.84;;;16.53;31.03
70127;BME280;57491;42.694;23.314;2023-04-12T09:10:04;94237.91;;;17.03;29.70
70127;BME280;57491;42.694;23.314;2023-04-12T09:12:31;94213.94;;;17.16;29.59
70127;BME280;57491;42.694;23.314;2023-04-12T09:15:07;94231.19;;;17.62;29.71
70127;BME280;57491;42.694;23.314;2023-04-12T09:17:34;94208.91;;;18.57;29.04
70127;BME280;57491;42.694;23.314;2023-04-12T09:20:21;94199.59;;;18.76;26.72
70127;BME280;57491;42.694;23.314;2023-04-12T09:22:50;94202.94;;;18.66;26.46
70127;BME280;57491;42.694;23.314;2023-04-12T09:25:36;94207.66;;;18.96;26.61
70127;BME280;57491;42.694;23.314;2023-04-12T09:28:04;94207.59;;;17.89;26.62
70127;BME280;57491;42.694;23.314;2023-04-12T09:30:44;94204.66;;;17.64;27.51
70127;BME280;57491;42.694;23.314;2023-04-12T09:33:17;94206.53;;;17.30;27.15
70127;BME280;57491;42.694;23.314;2023-04-12T09:35:44;94187.38;;;17.13;26.99
70127;BME280;57491;42.694;23.314;2023-04-12T09:38:11;94191.91;;;17.56;26.42
70127;BME280;57491;42.694;23.314;2023-04-12T09:40:40;94183.53;;;17.20;25.91
70127;BME280;57491;42.694;23.314;2023-04-12T09:43:07;94182.75;;;17.03;27.11
70127;BME280;57491;42.694;23.314;2023-04-12T09:45:35;94178.91;;;17.27;27.21
70127;BME280;57491;42.694;23.314;2023-04-12T09:48:04;94179.72;;;17.88;27.07
70127;BME280;57491;42.694;23.314;2023-04-12T09:50:32;94166.97;;;18.23;26.84
70127;BME280;57491;42.694;23.314;2023-04-12T09:53:00;94152.16;;;18.17;27.12
70127;BME280;57491;42.694;23.314;2023-04-12T09:55:29;94168.34;;;17.61;28.41
70127;BME280;57491;42.694;23.314;2023-04-12T09:58:01;94155.13;;;17.99;29.75
70127;BME280;57491;42.694;23.314;2023-04-12T10:00:30;94162.59;;;18.93;27.39
70127;BME280;57491;42.694;23.314;2023-04-12T10:02:59;94163.41;;;19.72;24.05
70127;BME280;57491;42.694;23.314;2023-04-12T10:05:26;94154.66;;;19.25;22.75
70127;BME280;57491;42.694;23.314;2023-04-12T10:07:53;94157.53;;;19.23;23.04
70127;BME280;57491;42.694;23.314;2023-04-12T10:10:21;94156.69;;;19.49;22.93
70127;BME280;57491;42.694;23.314;2023-04-12T10:12:49;94149.50;;;19.03;21.96
70127;BME280;57491;42.694;23.314;2023-04-12T10:15:18;94147.50;;;18.83;22.87
70127;BME280;57491;42.694;23.314;2023-04-12T10:17:51;94130.47;;;18.59;22.03
70127;BME280;57491;42.694;23.314;2023-04-12T10:20:19;94149.59;;;18.22;21.70
70127;BME280;57491;42.694;23.314;2023-04-12T10:22:47;94139.94;;;18.55;21.37
70127;BME280;57491;42.694;23.314;2023-04-12T10:25:17;94125.63;;;18.78;21.03
70127;BME280;57491;42.694;23.314;2023-04-12T10:27:46;94141.94;;;19.11;21.68
70127;BME280;57491;42.694;23.314;2023-04-12T10:30:22;94130.59;;;19.53;21.84
70127;BME280;57491;42.694;23.314;2023-04-12T10:33:10;94126.16;;;19.64;21.35
70127;BME280;57491;42.694;23.314;2023-04-12T10:36:00;94118.25;;;19.16;21.60
70127;BME280;57491;42.694;23.314;2023-04-12T10:38:45;94130.47;;;18.91;21.51
70127;BME280;57491;42.694;23.314;2023-04-12T10:41:15;94131.47;;;19.74;20.34
70127;BME280;57491;42.694;23.314;2023-04-12T10:43:44;94126.53;;;19.92;19.62
70127;BME280;57491;42.694;23.314;2023-04-12T10:46:47;94120.69;;;19.90;19.80
70127;BME280;57491;42.694;23.314;2023-04-12T10:49:15;94132.47;;;20.55;20.03
70127;BME280;57491;42.694;23.314;2023-04-12T10:52:13;94128.28;;;20.84;20.28
70127;BME280;57491;42.694;23.314;2023-04-12T10:54:42;94118.22;;;21.07;18.24
70127;BME280;57491;42.694;23.314;2023-04-12T11:00:12;94110.84;;;20.88;18.73
70127;BME280;57491;42.694;23.314;2023-04-12T11:03:08;94106.94;;;21.75;18.57
70127;BME280;57491;42.694;23.314;2023-04-12T11:05:57;94091.53;;;21.88;19.09
70127;BME280;57491;42.694;23.314;2023-04-12T11:08:25;94088.69;;;22.28;17.74
70127;BME280;57491;42.694;23.314;2023-04-12T11:10:58;94096.03;;;21.92;17.50
70127;BME280;57491;42.694;23.314;2023-04-12T11:13:27;94103.28;;;22.20;17.74
70127;BME280;57491;42.694;23.314;2023-04-12T11:15:54;94108.59;;;22.15;16.97
70127;BME280;57491;42.694;23.314;2023-04-12T11:18:24;94101.53;;;22.06;18.06
70127;BME280;57491;42.694;23.314;2023-04-12T11:20:51;94096.00;;;22.46;17.36
70127;BME280;57491;42.694;23.314;2023-04-12T11:23:18;94098.34;;;22.09;17.67
70127;BME280;57491;42.694;23.314;2023-04-12T11:25:49;94094.28;;;21.62;17.68
70127;BME280;57491;42.694;23.314;2023-04-12T11:28:18;94089.16;;;20.97;17.73
70127;BME280;57491;42.694;23.314;2023-04-12T11:30:51;94084.16;;;20.60;18.63
70127;BME280;57491;42.694;23.314;2023-04-12T11:33:32;94089.69;;;20.88;18.84
70127;BME280;57491;42.694;23.314;2023-04-12T11:36:02;94057.75;;;20.49;19.02
70127;BME280;57491;42.694;23.314;2023-04-12T11:38:29;94080.06;;;19.86;18.92
70127;BME280;57491;42.694;23.314;2023-04-12T11:40:56;94086.28;;;20.42;21.25
70127;BME280;57491;42.694;23.314;2023-04-12T11:43:23;94088.38;;;20.91;18.38
70127;BME280;57491;42.694;23.314;2023-04-12T11:45:55;94096.28;;;21.01;18.39
70127;BME280;57491;42.694;23.314;2023-04-12T11:48:23;94094.31;;;21.57;17.60
70127;BME280;57491;42.694;23.314;2023-04-12T11:50:51;94095.50;;;20.96;17.93
70127;BME280;57491;42.694;23.314;2023-04-12T11:53:19;94095.97;;;21.38;18.47
70127;BME280;57491;42.694;23.314;2023-04-12T11:55:49;94096.03;;;21.97;17.75
70127;BME280;57491;42.694;23.314;2023-04-12T11:58:16;94083.00;;;21.36;17.83
70127;BME280;57491;42.694;23.314;2023-04-12T12:00:44;94102.72;;;21.74;19.17
70127;BME280;57491;42.694;23.314;2023-04-12T12:03:11;94093.31;;;22.51;17.71
70127;BME280;57491;42.694;23.314;2023-04-12T12:05:39;94098.28;;;22.19;17.78
70127;BME280;57491;42.694;23.314;2023-04-12T12:08:08;94108.31;;;22.61;18.56
70127;BME280;57491;42.694;23.314;2023-04-12T12:10:36;94094.09;;;22.86;17.57
70127;BME280;57491;42.694;23.314;2023-04-12T12:13:10;94094.28;;;23.23;17.23
70127;BME280;57491;42.694;23.314;2023-04-12T12:15:37;94094.88;;;23.44;16.70
70127;BME280;57491;42.694;23.314;2023-04-12T12:18:06;94081.56;;;24.34;15.81
70127;BME280;57491;42.694;23.314;2023-04-12T12:20:39;94084.34;;;24.42;15.48
70127;BME280;57491;42.694;23.314;2023-04-12T12:23:08;94080.50;;;23.92;16.68
70127;BME280;57491;42.694;23.314;2023-04-12T12:25:35;94078.53;;;23.79;16.23
70127;BME280;57491;42.694;23.314;2023-04-12T12:28:01;94085.78;;;23.74;16.96
70127;BME280;57491;42.694;23.314;2023-04-12T12:30:30;94086.63;;;24.12;15.98
70127;BME280;57491;42.694;23.314;2023-04-12T12:32:57;94093.13;;;24.00;16.07
70127;BME280;57491;42.694;23.314;2023-04-12T12:35:24;94090.28;;;23.54;16.47
70127;BME280;57491;42.694;23.314;2023-04-12T12:37:53;94083.22;;;23.16;17.99
70127;BME280;57491;42.694;23.314;2023-04-12T12:40:31;94094.22;;;22.32;17.84
70127;BME280;57491;42.694;23.314;2023-04-12T12:42:58;94088.34;;;20.96;18.68
70127;BME280;57491;42.694;23.314;2023-04-12T12:45:26;94090.19;;;20.25;19.53
70127;BME280;57491;42.694;23.314;2023-04-12T12:47:57;94092.97;;;19.78;20.50
70127;BME280;57491;42.694;23.314;2023-04-12T12:50:26;94090.94;;;19.38;20.12
70127;BME280;57491;42.694;23.314;2023-04-12T12:52:54;94096.47;;;18.89;21.32
70127;BME280;57491;42.694;23.314;2023-04-12T12:55:22;94093.31;;;18.55;21.30
70127;BME280;57491;42.694;23.314;2023-04-12T12:57:53;94096.81;;;18.07;21.95
70127;BME280;57491;42.694;23.314;2023-04-12T13:00:22;94098.63;;;17.80;21.79
70127;BME280;57491;42.694;23.314;2023-04-12T13:02:49;94103.97;;;17.63;22.40